Alvo, NE

7:04 PM CDT on October 21, 2014 (GMT -0500)
274th & Fletcher Ave | Change Station
CLOSE
Current Station
Personal Weather Station
Location: Elmwood, NE
Elevation: 1290 ft
Nearby Weather Stations

Elev 1290 ft 40.87 °N, 96.33 °W | Updated 18 seconds ago

Clear
Clear
63.5 °F
Feels Like 63.5 °F
N
8.0
Wind Variable Wind from SE
Gusts 12.0 mph

Today
High -- | Low -- °F
--% Chance of Precip.
Yesterday
High -- | Low -- °F
Precip. -- in
7:43 AM 6:36 PM
Waning Crescent, 4% visible
Pressure 30.02 in
Visibility 10.0 miles
Clouds Clear
Dew Point 42 °F
Humidity 45%
Rainfall 0.00 in
Snow Depth Not available.
UV 0 out of 12
Pollen 2.80 out of 12
Air Quality Not available.
Flu Activity Sporadic
METAR KLNK 212354Z 12008KT 10SM CLR 19/06 A3002 RMK AO2 SLP165 60000 T01890061 10250 20189 55003

More Conditions Fewer Conditions

Pressure 30.02 in
Visibility 10.0 miles
Clouds Clear
Dew Point 42 °F
Humidity 45%
Rainfall 0.00 in
Snow Depth Not available.
UV 0 out of 12
Pollen 2.80 out of 12
Air Quality Not available.
Flu Activity Sporadic
METAR KLNK 212354Z 12008KT 10SM CLR 19/06 A3002 RMK AO2 SLP165 60000 T01890061 10250 20189 55003

More Conditions Fewer Conditions

10-Day Weather Forecast

Almanac

Astronomy

Oct. 21, 2014 Rise Set
Actual Time 7:43 AM CDT 6:36 PM CDT
Civil Twilight 7:15 AM CDT 7:03 PM CDT
Nautical Twilight 6:43 AM CDT 7:35 PM CDT
Astronomical Twilight 6:11 AM CDT 8:07 PM CDT
Moon 5:27 AM CDT (10/21) 5:31 PM CDT (10/21)
Length of Visible Light 11h 48m
Length of Day
10h 52m
Tomorrow will be 2m 32s shorter.
Waning Crescent, 4% of the Moon is Illuminated
Today
Waning Crescent
Oct 23
New
Oct 30
First Quarter
Nov 6
Full
Nov 14
Last Quarter

Today's Extremes

State Highs State Lows

Community

WunderPhotos

Upload Photos

1,763,824 photos uploaded!

Nearby

Snow Depth

Station Depth Elevation
No new snow has been reported.

Earthquake Activity

City Distance Mag. Time & Date
No recent earthquake activity has been reported nearby.
Minimum magnitude displayed is 2.5.

Coastal Water Temperatures

Place Temperature
No Stations Reporting

Nearby Weather Stations